Lithia Springs, GA (30122)

3:53 PM EDT on July 27, 2016 (GMT -0400)
Werner Ent. Atlanta | | Change Station

Elev 912 ft 33.77 °N, 84.62 °W | Updated 4 minutes ago

Mostly Cloudy
Mostly Cloudy
88.3 °F
Feels Like 97 °F
N
5.0
Wind Variable Wind from SSW
Gusts 15.0 mph

Today
High -- | Low -- °F
--% Chance of Precip.
Yesterday
High -- | Low -- °F
Precip. -- in
Pressure 30.03 in
Visibility 10.0 miles
Clouds Few 3500 ft
Mostly Cloudy 6000 ft
Heat Index 97 °F
Dew Point 74 °F
Humidity 63%
Rainfall 0.00 in
Snow Depth Not available.
6:47 AM 8:42 PM
Last Quarter, 40% visible
METAR KMGE 271858Z 21007KT 10SM FEW035 BKN060 30/22 A3006 RMK AO2A SLP168 T02950222 $
Pressure 30.03 in
Visibility 10.0 miles
Clouds Few 3500 ft
Mostly Cloudy 6000 ft
Heat Index 97 °F
Dew Point 74 °F
Humidity 63%
Rainfall 0.00 in
Snow Depth Not available.
6:47 AM 8:42 PM
Last Quarter, 40% visible
METAR KMGE 271858Z 21007KT 10SM FEW035 BKN060 30/22 A3006 RMK AO2A SLP168 T02950222 $

10-Day Weather Forecast

Almanac

Astronomy

Jul. 27, 2016 Rise Set
Actual Time
Civil Twilight
Nautical Twilight
Astronomical Twilight
Moon
Length of Visible Light
Length of Day
Tomorrow will be .
, % of the Moon is Illuminated

Today's Extremes

State Highs State Lows

Community

WunderPhotos

Upload Photos

1,927,920 photos uploaded!

WunderBlog® & News

Nearby

Air Quality

  Air Quality AQ Index Pollutant
Not available.

Snow Depth

Station Depth Elevation

Earthquake Activity

City Distance Mag. Time & Date
Minimum magnitude displayed is 2.5.

Coastal Water Temperatures

Place Temperature

Stations

Nearby Weather Stations

Station Location Temp. Windchill Dew Point Humidity Wind Precip. Elev Updated Type
                   

Watches & Warnings

There are currently no watches in effect.